sensor_id;sensor_type;location;lat;lon;timestamp;P1;durP1;ratioP1;P2;durP2;ratioP2
1410;SDS011;700;51.906;8.404;2023-03-30T00:03:01;5.37;;;4.57;;
1410;SDS011;700;51.906;8.404;2023-03-30T00:08:01;6.93;;;4.47;;
1410;SDS011;700;51.906;8.404;2023-03-30T00:13:02;5.37;;;3.93;;
1410;SDS011;700;51.906;8.404;2023-03-30T00:18:03;7.63;;;4.50;;
1410;SDS011;700;51.906;8.404;2023-03-30T00:23:06;5.30;;;4.03;;
1410;SDS011;700;51.906;8.404;2023-03-30T00:28:09;5.90;;;4.50;;
1410;SDS011;700;51.906;8.404;2023-03-30T00:33:10;5.80;;;4.30;;
1410;SDS011;700;51.906;8.404;2023-03-30T00:38:10;5.53;;;4.17;;
1410;SDS011;700;51.906;8.404;2023-03-30T00:43:13;10.17;;;5.00;;
1410;SDS011;700;51.906;8.404;2023-03-30T00:53:33;5.80;;;4.13;;
1410;SDS011;700;51.906;8.404;2023-03-30T00:58:44;7.57;;;4.67;;
1410;SDS011;700;51.906;8.404;2023-03-30T01:03:48;4.50;;;4.10;;
1410;SDS011;700;51.906;8.404;2023-03-30T01:08:50;6.10;;;4.07;;
1410;SDS011;700;51.906;8.404;2023-03-30T01:13:58;6.00;;;3.73;;
1410;SDS011;700;51.906;8.404;2023-03-30T01:29:56;4.33;;;3.60;;
1410;SDS011;700;51.906;8.404;2023-03-30T01:40:23;5.20;;;3.57;;
1410;SDS011;700;51.906;8.404;2023-03-30T01:46:19;5.67;;;3.60;;
1410;SDS011;700;51.906;8.404;2023-03-30T01:51:04;5.97;;;2.70;;
1410;SDS011;700;51.906;8.404;2023-03-30T01:56:14;5.17;;;2.60;;
1410;SDS011;700;51.906;8.404;2023-03-30T02:01:23;6.53;;;3.33;;
1410;SDS011;700;51.906;8.404;2023-03-30T02:06:33;6.20;;;3.67;;
1410;SDS011;700;51.906;8.404;2023-03-30T02:11:45;6.20;;;3.50;;
1410;SDS011;700;51.906;8.404;2023-03-30T02:16:50;6.63;;;3.13;;
1410;SDS011;700;51.906;8.404;2023-03-30T02:21:55;3.83;;;2.70;;
1410;SDS011;700;51.906;8.404;2023-03-30T02:26:56;7.73;;;3.07;;
1410;SDS011;700;51.906;8.404;2023-03-30T02:32:00;9.10;;;4.57;;
1410;SDS011;700;51.906;8.404;2023-03-30T02:42:29;8.03;;;3.53;;
1410;SDS011;700;51.906;8.404;2023-03-30T02:47:45;7.07;;;3.13;;
1410;SDS011;700;51.906;8.404;2023-03-30T02:53:13;3.77;;;2.30;;
1410;SDS011;700;51.906;8.404;2023-03-30T02:58:22;6.40;;;3.73;;
1410;SDS011;700;51.906;8.404;2023-03-30T03:03:35;4.93;;;2.77;;
1410;SDS011;700;51.906;8.404;2023-03-30T03:08:52;6.30;;;3.40;;
1410;SDS011;700;51.906;8.404;2023-03-30T03:13:54;8.10;;;2.90;;
1410;SDS011;700;51.906;8.404;2023-03-30T03:18:57;12.10;;;2.97;;
1410;SDS011;700;51.906;8.404;2023-03-30T03:24:01;5.63;;;3.20;;
1410;SDS011;700;51.906;8.404;2023-03-30T03:29:03;7.73;;;2.80;;
1410;SDS011;700;51.906;8.404;2023-03-30T03:34:03;4.33;;;2.40;;
1410;SDS011;700;51.906;8.404;2023-03-30T03:39:04;8.00;;;3.10;;
1410;SDS011;700;51.906;8.404;2023-03-30T03:44:07;4.67;;;2.93;;
1410;SDS011;700;51.906;8.404;2023-03-30T03:49:08;4.03;;;2.40;;
1410;SDS011;700;51.906;8.404;2023-03-30T03:54:11;6.43;;;2.83;;
1410;SDS011;700;51.906;8.404;2023-03-30T03:59:12;8.33;;;2.80;;
1410;SDS011;700;51.906;8.404;2023-03-30T04:04:12;7.00;;;4.63;;
1410;SDS011;700;51.906;8.404;2023-03-30T04:09:20;5.50;;;3.10;;
1410;SDS011;700;51.906;8.404;2023-03-30T04:14:23;10.43;;;3.40;;
1410;SDS011;700;51.906;8.404;2023-03-30T04:19:24;5.20;;;2.97;;
1410;SDS011;700;51.906;8.404;2023-03-30T04:24:28;5.87;;;2.90;;
1410;SDS011;700;51.906;8.404;2023-03-30T04:29:30;4.00;;;2.23;;
1410;SDS011;700;51.906;8.404;2023-03-30T04:34:31;6.90;;;2.40;;
1410;SDS011;700;51.906;8.404;2023-03-30T04:39:32;4.40;;;2.23;;
1410;SDS011;700;51.906;8.404;2023-03-30T04:44:33;6.40;;;2.57;;
1410;SDS011;700;51.906;8.404;2023-03-30T04:49:36;7.47;;;4.60;;
1410;SDS011;700;51.906;8.404;2023-03-30T04:54:37;3.80;;;2.03;;
1410;SDS011;700;51.906;8.404;2023-03-30T04:59:40;6.47;;;2.53;;
1410;SDS011;700;51.906;8.404;2023-03-30T05:04:41;9.60;;;3.00;;
1410;SDS011;700;51.906;8.404;2023-03-30T05:09:42;7.40;;;2.97;;
1410;SDS011;700;51.906;8.404;2023-03-30T05:14:43;6.00;;;2.80;;
1410;SDS011;700;51.906;8.404;2023-03-30T05:19:48;6.83;;;3.00;;
1410;SDS011;700;51.906;8.404;2023-03-30T05:24:49;4.60;;;2.40;;
1410;SDS011;700;51.906;8.404;2023-03-30T05:29:53;4.70;;;2.50;;
1410;SDS011;700;51.906;8.404;2023-03-30T05:34:54;8.50;;;2.20;;
1410;SDS011;700;51.906;8.404;2023-03-30T05:39:57;4.10;;;1.90;;
1410;SDS011;700;51.906;8.404;2023-03-30T05:45:00;3.43;;;1.77;;
1410;SDS011;700;51.906;8.404;2023-03-30T05:50:05;6.00;;;2.60;;
1410;SDS011;700;51.906;8.404;2023-03-30T05:55:08;5.40;;;2.23;;
1410;SDS011;700;51.906;8.404;2023-03-30T06:00:11;8.13;;;2.27;;
1410;SDS011;700;51.906;8.404;2023-03-30T06:05:14;3.60;;;1.50;;
1410;SDS011;700;51.906;8.404;2023-03-30T06:10:14;5.20;;;1.97;;
1410;SDS011;700;51.906;8.404;2023-03-30T06:15:15;4.53;;;1.90;;
1410;SDS011;700;51.906;8.404;2023-03-30T06:20:16;3.27;;;1.90;;
1410;SDS011;700;51.906;8.404;2023-03-30T06:25:16;4.27;;;2.47;;
1410;SDS011;700;51.906;8.404;2023-03-30T06:30:19;5.00;;;2.27;;
1410;SDS011;700;51.906;8.404;2023-03-30T06:35:20;8.37;;;2.40;;
1410;SDS011;700;51.906;8.404;2023-03-30T06:40:21;3.10;;;1.80;;
1410;SDS011;700;51.906;8.404;2023-03-30T06:45:24;5.90;;;1.90;;
1410;SDS011;700;51.906;8.404;2023-03-30T06:50:25;5.40;;;2.93;;
1410;SDS011;700;51.906;8.404;2023-03-30T06:55:25;9.03;;;2.60;;
1410;SDS011;700;51.906;8.404;2023-03-30T07:00:26;5.77;;;2.80;;
1410;SDS011;700;51.906;8.404;2023-03-30T07:05:29;7.90;;;2.47;;
1410;SDS011;700;51.906;8.404;2023-03-30T07:10:30;4.97;;;2.37;;
1410;SDS011;700;51.906;8.404;2023-03-30T07:15:31;5.40;;;2.53;;
1410;SDS011;700;51.906;8.404;2023-03-30T07:20:32;7.17;;;2.90;;
1410;SDS011;700;51.906;8.404;2023-03-30T07:25:32;9.70;;;3.50;;
1410;SDS011;700;51.906;8.404;2023-03-30T07:30:36;11.27;;;2.70;;
1410;SDS011;700;51.906;8.404;2023-03-30T07:35:41;8.67;;;3.50;;
1410;SDS011;700;51.906;8.404;2023-03-30T07:40:44;5.60;;;2.50;;
1410;SDS011;700;51.906;8.404;2023-03-30T07:45:44;8.67;;;3.53;;
1410;SDS011;700;51.906;8.404;2023-03-30T07:50:45;3.70;;;2.13;;
1410;SDS011;700;51.906;8.404;2023-03-30T07:55:46;5.60;;;2.23;;
1410;SDS011;700;51.906;8.404;2023-03-30T08:00:47;6.97;;;2.27;;
1410;SDS011;700;51.906;8.404;2023-03-30T08:05:54;5.10;;;2.10;;
1410;SDS011;700;51.906;8.404;2023-03-30T08:10:58;3.40;;;2.30;;
1410;SDS011;700;51.906;8.404;2023-03-30T08:16:03;5.03;;;2.87;;
1410;SDS011;700;51.906;8.404;2023-03-30T08:21:05;8.60;;;1.97;;
1410;SDS011;700;51.906;8.404;2023-03-30T08:26:05;5.00;;;1.90;;
1410;SDS011;700;51.906;8.404;2023-03-30T08:31:11;9.03;;;2.63;;
1410;SDS011;700;51.906;8.404;2023-03-30T08:36:19;5.37;;;2.07;;
1410;SDS011;700;51.906;8.404;2023-03-30T08:46:30;9.33;;;2.10;;
1410;SDS011;700;51.906;8.404;2023-03-30T08:51:32;6.37;;;2.27;;
1410;SDS011;700;51.906;8.404;2023-03-30T09:06:56;5.60;;;2.00;;
1410;SDS011;700;51.906;8.404;2023-03-30T09:12:56;3.77;;;2.17;;
1410;SDS011;700;51.906;8.404;2023-03-30T09:17:41;9.53;;;2.30;;
1410;SDS011;700;51.906;8.404;2023-03-30T09:22:48;10.00;;;2.50;;
1410;SDS011;700;51.906;8.404;2023-03-30T09:33:05;2.87;;;1.80;;
1410;SDS011;700;51.906;8.404;2023-03-30T09:38:13;4.37;;;1.70;;
1410;SDS011;700;51.906;8.404;2023-03-30T09:43:15;6.27;;;2.10;;
1410;SDS011;700;51.906;8.404;2023-03-30T09:48:43;3.73;;;1.70;;
1410;SDS011;700;51.906;8.404;2023-03-30T09:53:49;9.90;;;2.27;;
1410;SDS011;700;51.906;8.404;2023-03-30T09:58:54;8.57;;;2.90;;
1410;SDS011;700;51.906;8.404;2023-03-30T10:04:08;9.50;;;2.87;;
1410;SDS011;700;51.906;8.404;2023-03-30T10:09:12;5.03;;;2.27;;
1410;SDS011;700;51.906;8.404;2023-03-30T10:19:33;4.93;;;2.20;;
1410;SDS011;700;51.906;8.404;2023-03-30T10:24:34;3.70;;;2.03;;
1410;SDS011;700;51.906;8.404;2023-03-30T10:29:47;5.53;;;2.20;;
1410;SDS011;700;51.906;8.404;2023-03-30T10:34:52;5.63;;;2.10;;
1410;SDS011;700;51.906;8.404;2023-03-30T10:39:57;3.63;;;1.70;;
1410;SDS011;700;51.906;8.404;2023-03-30T10:45:00;3.47;;;1.80;;
1410;SDS011;700;51.906;8.404;2023-03-30T11:06:34;4.37;;;1.70;;
1410;SDS011;700;51.906;8.404;2023-03-30T11:11:41;3.63;;;2.40;;
1410;SDS011;700;51.906;8.404;2023-03-30T11:17:11;5.73;;;1.80;;
1410;SDS011;700;51.906;8.404;2023-03-30T11:22:35;3.03;;;1.47;;
1410;SDS011;700;51.906;8.404;2023-03-30T11:28:08;6.27;;;3.43;;
1410;SDS011;700;51.906;8.404;2023-03-30T11:38:45;5.27;;;1.67;;
1410;SDS011;700;51.906;8.404;2023-03-30T11:43:56;5.57;;;1.50;;
1410;SDS011;700;51.906;8.404;2023-03-30T11:59:37;7.17;;;3.63;;
1410;SDS011;700;51.906;8.404;2023-03-30T12:04:44;6.20;;;2.57;;
1410;SDS011;700;51.906;8.404;2023-03-30T12:09:55;6.20;;;2.10;;
1410;SDS011;700;51.906;8.404;2023-03-30T12:30:58;6.40;;;2.67;;
1410;SDS011;700;51.906;8.404;2023-03-30T12:36:13;7.60;;;3.10;;
1410;SDS011;700;51.906;8.404;2023-03-30T12:41:28;7.07;;;2.50;;
1410;SDS011;700;51.906;8.404;2023-03-30T12:46:44;4.30;;;2.30;;
1410;SDS011;700;51.906;8.404;2023-03-30T13:07:40;5.87;;;2.43;;
1410;SDS011;700;51.906;8.404;2023-03-30T13:12:42;5.77;;;2.00;;
1410;SDS011;700;51.906;8.404;2023-03-30T13:17:48;6.87;;;2.10;;
1410;SDS011;700;51.906;8.404;2023-03-30T13:23:01;7.10;;;2.30;;
1410;SDS011;700;51.906;8.404;2023-03-30T13:33:34;7.07;;;3.00;;
1410;SDS011;700;51.906;8.404;2023-03-30T13:59:27;7.80;;;2.43;;
1410;SDS011;700;51.906;8.404;2023-03-30T14:04:32;6.07;;;2.67;;
1410;SDS011;700;51.906;8.404;2023-03-30T14:09:36;7.03;;;2.40;;
1410;SDS011;700;51.906;8.404;2023-03-30T14:14:42;8.30;;;2.53;;
1410;SDS011;700;51.906;8.404;2023-03-30T14:25:25;9.10;;;2.23;;
1410;SDS011;700;51.906;8.404;2023-03-30T14:30:30;6.97;;;2.07;;
1410;SDS011;700;51.906;8.404;2023-03-30T14:35:31;3.37;;;1.50;;
1410;SDS011;700;51.906;8.404;2023-03-30T14:40:36;4.37;;;1.60;;
1410;SDS011;700;51.906;8.404;2023-03-30T14:45:37;6.83;;;1.53;;
1410;SDS011;700;51.906;8.404;2023-03-30T14:50:40;3.10;;;1.57;;
1410;SDS011;700;51.906;8.404;2023-03-30T14:55:41;4.17;;;2.17;;
1410;SDS011;700;51.906;8.404;2023-03-30T15:00:42;4.00;;;2.00;;
1410;SDS011;700;51.906;8.404;2023-03-30T15:05:45;3.40;;;2.23;;
1410;SDS011;700;51.906;8.404;2023-03-30T15:10:49;4.60;;;2.23;;
1410;SDS011;700;51.906;8.404;2023-03-30T15:16:03;5.13;;;2.60;;
1410;SDS011;700;51.906;8.404;2023-03-30T15:21:08;5.80;;;3.00;;
1410;SDS011;700;51.906;8.404;2023-03-30T15:26:11;7.33;;;2.10;;
1410;SDS011;700;51.906;8.404;2023-03-30T15:31:12;3.87;;;2.30;;
1410;SDS011;700;51.906;8.404;2023-03-30T15:36:25;4.53;;;2.53;;
1410;SDS011;700;51.906;8.404;2023-03-30T15:41:43;8.53;;;3.60;;
1410;SDS011;700;51.906;8.404;2023-03-30T15:47:05;7.80;;;4.90;;
1410;SDS011;700;51.906;8.404;2023-03-30T15:52:18;5.80;;;2.83;;
1410;SDS011;700;51.906;8.404;2023-03-30T15:57:42;7.17;;;2.63;;
1410;SDS011;700;51.906;8.404;2023-03-30T16:07:59;5.47;;;2.17;;
1410;SDS011;700;51.906;8.404;2023-03-30T16:13:00;6.67;;;2.87;;
1410;SDS011;700;51.906;8.404;2023-03-30T16:18:05;4.20;;;2.00;;
1410;SDS011;700;51.906;8.404;2023-03-30T16:23:06;5.13;;;2.50;;
1410;SDS011;700;51.906;8.404;2023-03-30T16:28:09;6.47;;;2.63;;
1410;SDS011;700;51.906;8.404;2023-03-30T16:33:17;8.50;;;3.37;;
1410;SDS011;700;51.906;8.404;2023-03-30T16:38:20;8.57;;;2.90;;
1410;SDS011;700;51.906;8.404;2023-03-30T16:43:21;8.00;;;3.40;;
1410;SDS011;700;51.906;8.404;2023-03-30T16:48:26;7.80;;;2.90;;
1410;SDS011;700;51.906;8.404;2023-03-30T16:53:26;8.50;;;4.27;;
1410;SDS011;700;51.906;8.404;2023-03-30T16:58:27;8.83;;;3.93;;
1410;SDS011;700;51.906;8.404;2023-03-30T17:03:28;6.80;;;3.13;;
1410;SDS011;700;51.906;8.404;2023-03-30T17:08:29;9.77;;;3.30;;
1410;SDS011;700;51.906;8.404;2023-03-30T17:13:32;10.07;;;3.07;;
1410;SDS011;700;51.906;8.404;2023-03-30T17:18:35;7.40;;;3.33;;
1410;SDS011;700;51.906;8.404;2023-03-30T17:23:39;6.13;;;2.63;;
1410;SDS011;700;51.906;8.404;2023-03-30T17:28:39;6.57;;;2.90;;
1410;SDS011;700;51.906;8.404;2023-03-30T17:33:41;10.70;;;3.77;;
1410;SDS011;700;51.906;8.404;2023-03-30T17:38:42;8.27;;;3.10;;
1410;SDS011;700;51.906;8.404;2023-03-30T17:43:43;11.87;;;3.60;;
1410;SDS011;700;51.906;8.404;2023-03-30T17:48:47;11.60;;;4.73;;
1410;SDS011;700;51.906;8.404;2023-03-30T17:53:50;6.40;;;3.83;;
1410;SDS011;700;51.906;8.404;2023-03-30T17:58:50;8.00;;;3.83;;
1410;SDS011;700;51.906;8.404;2023-03-30T18:03:52;10.70;;;4.70;;
1410;SDS011;700;51.906;8.404;2023-03-30T18:08:54;10.47;;;4.43;;
1410;SDS011;700;51.906;8.404;2023-03-30T18:13:55;12.67;;;4.90;;
1410;SDS011;700;51.906;8.404;2023-03-30T18:18:56;8.27;;;3.80;;
1410;SDS011;700;51.906;8.404;2023-03-30T18:23:56;12.27;;;4.00;;
1410;SDS011;700;51.906;8.404;2023-03-30T18:28:57;9.40;;;3.43;;
1410;SDS011;700;51.906;8.404;2023-03-30T18:34:00;7.20;;;2.70;;
1410;SDS011;700;51.906;8.404;2023-03-30T18:39:07;7.97;;;3.43;;
1410;SDS011;700;51.906;8.404;2023-03-30T18:44:17;6.87;;;2.40;;
1410;SDS011;700;51.906;8.404;2023-03-30T18:49:18;6.27;;;3.20;;
1410;SDS011;700;51.906;8.404;2023-03-30T18:54:22;9.63;;;2.80;;
1410;SDS011;700;51.906;8.404;2023-03-30T18:59:23;6.10;;;3.13;;
1410;SDS011;700;51.906;8.404;2023-03-30T19:04:25;6.90;;;2.57;;
1410;SDS011;700;51.906;8.404;2023-03-30T19:09:25;6.17;;;2.27;;
1410;SDS011;700;51.906;8.404;2023-03-30T19:14:28;5.43;;;2.13;;
1410;SDS011;700;51.906;8.404;2023-03-30T19:19:29;7.20;;;2.40;;
1410;SDS011;700;51.906;8.404;2023-03-30T19:24:29;5.67;;;2.20;;
1410;SDS011;700;51.906;8.404;2023-03-30T19:29:33;5.40;;;2.23;;
1410;SDS011;700;51.906;8.404;2023-03-30T19:34:35;9.70;;;2.40;;
1410;SDS011;700;51.906;8.404;2023-03-30T19:39:38;9.63;;;3.07;;
1410;SDS011;700;51.906;8.404;2023-03-30T19:44:39;5.30;;;2.20;;
1410;SDS011;700;51.906;8.404;2023-03-30T19:49:39;4.83;;;1.60;;
1410;SDS011;700;51.906;8.404;2023-03-30T19:54:40;4.00;;;2.03;;
1410;SDS011;700;51.906;8.404;2023-03-30T19:59:43;6.30;;;1.87;;
1410;SDS011;700;51.906;8.404;2023-03-30T20:04:47;4.40;;;1.60;;
1410;SDS011;700;51.906;8.404;2023-03-30T20:09:48;5.27;;;2.10;;
1410;SDS011;700;51.906;8.404;2023-03-30T20:14:48;5.53;;;1.80;;
1410;SDS011;700;51.906;8.404;2023-03-30T20:19:51;6.43;;;2.10;;
1410;SDS011;700;51.906;8.404;2023-03-30T20:24:57;8.50;;;2.20;;
1410;SDS011;700;51.906;8.404;2023-03-30T20:29:57;8.80;;;2.47;;
1410;SDS011;700;51.906;8.404;2023-03-30T20:34:58;4.97;;;2.70;;
1410;SDS011;700;51.906;8.404;2023-03-30T20:39:59;6.37;;;2.20;;
1410;SDS011;700;51.906;8.404;2023-03-30T20:45:08;7.70;;;2.30;;
1410;SDS011;700;51.906;8.404;2023-03-30T20:50:12;10.10;;;2.50;;
1410;SDS011;700;51.906;8.404;2023-03-30T20:55:14;6.40;;;2.67;;
1410;SDS011;700;51.906;8.404;2023-03-30T21:00:16;4.83;;;2.00;;
1410;SDS011;700;51.906;8.404;2023-03-30T21:05:17;7.40;;;2.53;;
1410;SDS011;700;51.906;8.404;2023-03-30T21:10:17;8.00;;;2.53;;
1410;SDS011;700;51.906;8.404;2023-03-30T21:15:22;5.23;;;2.40;;
1410;SDS011;700;51.906;8.404;2023-03-30T21:20:25;6.57;;;2.63;;
1410;SDS011;700;51.906;8.404;2023-03-30T21:25:29;5.97;;;2.17;;
1410;SDS011;700;51.906;8.404;2023-03-30T21:30:33;8.20;;;3.00;;
1410;SDS011;700;51.906;8.404;2023-03-30T21:35:34;6.57;;;2.30;;
1410;SDS011;700;51.906;8.404;2023-03-30T21:40:37;5.30;;;2.40;;
1410;SDS011;700;51.906;8.404;2023-03-30T21:45:37;8.53;;;3.23;;
1410;SDS011;700;51.906;8.404;2023-03-30T21:50:40;5.70;;;2.33;;
1410;SDS011;700;51.906;8.404;2023-03-30T21:55:41;8.73;;;2.63;;
1410;SDS011;700;51.906;8.404;2023-03-30T22:00:43;4.17;;;2.80;;
1410;SDS011;700;51.906;8.404;2023-03-30T22:05:47;5.77;;;2.50;;
1410;SDS011;700;51.906;8.404;2023-03-30T22:10:56;7.17;;;2.43;;
1410;SDS011;700;51.906;8.404;2023-03-30T22:16:01;4.57;;;2.10;;
1410;SDS011;700;51.906;8.404;2023-03-30T22:21:14;5.60;;;2.37;;
1410;SDS011;700;51.906;8.404;2023-03-30T22:26:16;4.70;;;2.20;;
1410;SDS011;700;51.906;8.404;2023-03-30T22:31:21;6.40;;;2.30;;
1410;SDS011;700;51.906;8.404;2023-03-30T22:36:23;8.30;;;2.23;;
1410;SDS011;700;51.906;8.404;2023-03-30T22:41:33;5.97;;;1.97;;
1410;SDS011;700;51.906;8.404;2023-03-30T22:46:33;6.30;;;2.43;;
1410;SDS011;700;51.906;8.404;2023-03-30T22:51:36;7.97;;;2.47;;
1410;SDS011;700;51.906;8.404;2023-03-30T22:56:45;5.10;;;1.73;;
1410;SDS011;700;51.906;8.404;2023-03-30T23:01:45;6.13;;;2.10;;
1410;SDS011;700;51.906;8.404;2023-03-30T23:06:46;5.10;;;1.90;;
1410;SDS011;700;51.906;8.404;2023-03-30T23:11:47;10.17;;;1.80;;
1410;SDS011;700;51.906;8.404;2023-03-30T23:16:50;6.90;;;2.43;;
1410;SDS011;700;51.906;8.404;2023-03-30T23:21:53;4.20;;;1.80;;
1410;SDS011;700;51.906;8.404;2023-03-30T23:26:53;5.87;;;1.53;;
1410;SDS011;700;51.906;8.404;2023-03-30T23:31:56;6.43;;;2.90;;
1410;SDS011;700;51.906;8.404;2023-03-30T23:37:02;6.30;;;1.63;;
1410;SDS011;700;51.906;8.404;2023-03-30T23:42:05;3.83;;;1.40;;
1410;SDS011;700;51.906;8.404;2023-03-30T23:47:08;6.73;;;1.73;;
1410;SDS011;700;51.906;8.404;2023-03-30T23:52:11;4.10;;;1.43;;
1410;SDS011;700;51.906;8.404;2023-03-30T23:57:13;2.93;;;1.07;;
